Flight Track Log - Related Links

Times and Time Zones

All times are in EDT time to prevent confusion due to time zone crossing. See the UAL993 flight status page for this flight to view local times or setup timezone preferences in your user account.

Time Position Orientation Groundspeed Altitude Reporting Facility
EDT Latitude Longitude Course Direction KTS MPH feet Rate Location/Type
Fri 07:34:13 PM 40.7158 -74.1523 26° Northeast 172 198 1,200  Level FlightAware ADS-B
Fri 07:34:22 PM 40.7220 -74.1445 44° Northeast 192 221 1,500 2,000 Climbing FlightAware ADS-B
Fri 07:34:43 PM 40.7378 -74.1295 36° Northeast 208 239 2,200 2,600 Climbing FlightAware ADS-B
Fri 07:34:52 PM 40.7456 -74.1248 25° Northeast 214 246 2,800 3,462 Climbing FlightAware ADS-B
Fri 07:35:09 PM 40.7613 -74.1163 22° Northeast 217 250 3,700 3,000 Climbing FlightAware ADS-B
Fri 07:35:24 PM 40.7759 -74.1085 22° Northeast 230 265 4,400 2,800 Climbing FlightAware ADS-B
Fri 07:35:39 PM 40.7911 -74.1002 22° Northeast 235 270 5,100 2,400 Climbing FlightAware ADS-B
Fri 07:35:54 PM 40.8068 -74.0912 23° Northeast 256 295 5,600 2,000 Climbing FlightAware ADS-B
Fri 07:35:57 PM 40.8102 -74.0887 29° Northeast 260 299 5,700 2,667 Climbing FlightAware ADS-B
Fri 07:36:03 PM 40.8161 -74.0834 34° Northeast 257 296 6,000 3,333 Climbing FlightAware ADS-B
Fri 07:36:06 PM 40.8189 -74.0804 39° Northeast 256 295 6,200 3,750 Climbing FlightAware ADS-B
Fri 07:36:11 PM 40.8228 -74.0756 43° Northeast 255 293 6,500 3,600 Climbing FlightAware ADS-B
Fri 07:36:16 PM 40.8266 -74.0699 49° Northeast 253 291 6,800 3,750 Climbing FlightAware ADS-B
Fri 07:36:19 PM 40.8292 -74.0653 53° Northeast 252 290 7,000 3,750 Climbing FlightAware ADS-B
Fri 07:36:24 PM 40.8317 -74.0588 63° Northeast 254 292 7,300 2,500 Climbing FlightAware ADS-B
Fri 07:36:31 PM 40.8341 -74.0493 72° East 256 295 7,500 2,700 Climbing FlightAware ADS-B
Fri 07:36:44 PM 40.8348 -74.0281 87° East 259 298 8,200 3,200 Climbing FlightAware ADS-B
Fri 07:36:46 PM 40.8346 -74.0256 96° East 259 298 8,300 3,333 Climbing FlightAware ADS-B
Fri 07:36:53 PM 40.8341 -74.0135 93° East 262 302 8,700 3,231 Climbing FlightAware ADS-B
Fri 07:36:59 PM 40.8336 -74.0038 94° East 263 303 9,000 2,727 Climbing FlightAware ADS-B
Fri 07:37:04 PM 40.8332 -73.9971 95° East 264 304 9,200 2,500 Climbing FlightAware ADS-B
Fri 07:37:11 PM 40.8324 -73.9842 95° East 273 314 9,500 2,211 Climbing FlightAware ADS-B
Fri 07:37:23 PM 40.8311 -73.9645 95° East 276 318 9,900 857 Climbing FlightAware ADS-B
Fri 07:37:39 PM 40.8291 -73.9345 95° East 311 358 9,900  Level FlightAware ADS-B
Fri 07:37:46 PM 40.8282 -73.9221 95° East 303 349 9,900 383 Level FlightAware ADS-B
Fri 07:38:26 PM 40.8450 -73.8450 74° East 348 400 10,200 1,390 Climbing FlightAware ADS-B
Fri 07:39:08 PM 40.8940 -73.7780 46° Northeast 374 430 11,800 2,512 Climbing FlightAware ADS-B
Fri 07:39:52 PM 40.9510 -73.7050 44° Northeast 391 450 13,800 2,786 Climbing FlightAware ADS-B
Fri 07:40:32 PM 41.0030 -73.6370 45° Northeast 400 460 15,700 2,550 Climbing FlightAware ADS-B
Fri 07:41:12 PM 41.0530 -73.5680 46° Northeast 415 478 17,200 2,229 Climbing FlightAware ADS-B
Fri 07:41:42 PM 41.0925 -73.5054 50° Northeast 428 493 18,300 2,121 Climbing FlightAware ADS-B
Fri 07:43:08 PM 41.1993 -73.3206 52° Northeast 452 520 21,300 1,636 Climbing FlightAware ADS-B
Fri 07:44:05 PM 41.2650 -73.2070 52° Northeast 451 519 22,200 2,036 Climbing FlightAware ADS-B
Fri 07:45:00 PM 41.3420 -73.0710 53° Northeast 471 542 25,100 1,929 Climbing FlightAware ADS-B
Fri 07:45:57 PM 41.4150 -72.9460 52° Northeast 480 552 25,800 1,423 Climbing FlightAware ADS-B
Fri 07:46:37 PM 41.4740 -72.8410 53° Northeast 499 574 27,400 2,053 Climbing FlightAware ADS-B
Fri 07:47:13 PM 41.5250 -72.7530 52° Northeast 501 577 28,400 1,890 Climbing FlightAware ADS-B
Fri 07:47:50 PM 41.5790 -72.6650 51° Northeast 498 573 29,700 1,013 Climbing FlightAware ADS-B
Fri 07:48:30 PM 41.6310 -72.5860 49° Northeast 498 573 29,700 1,260 Level FlightAware ADS-B
Fri 07:49:30 PM 41.7250 -72.4430 49° Northeast 497 572 31,800 1,299 Climbing FlightAware ADS-B
Fri 07:50:07 PM 41.7730 -72.3710 48° Northeast 497 572 31,800  Level FlightAware ADS-B
Fri 07:50:55 PM 41.8360 -72.2770 48° Northeast 497 572 31,800  Level FlightAware ADS-B
Fri 07:51:31 PM 41.8830 -72.2070 48° Northeast 497 572 31,800 2,430 Level FlightAware ADS-B
Fri 07:52:14 PM 41.9730 -72.0640 50° Northeast 495 570 35,000 2,182 Climbing FlightAware ADS-B
Fri 07:52:59 PM 42.0460 -71.9510 49° Northeast 492 566 35,000  Level FlightAware ADS-B
Fri 07:53:44 PM 42.1120 -71.8490 49° Northeast 492 566 35,000  Level FlightAware ADS-B
Fri 07:54:24 PM 42.1700 -71.7590 49° Northeast 491 565 35,000  Level FlightAware ADS-B
Fri 07:55:04 PM 42.2310 -71.6640 49° Northeast 492 566 35,000  Level FlightAware ADS-B
Fri 07:55:49 PM 42.2970 -71.5600 49° Northeast 490 564 35,000  Level FlightAware ADS-B
Fri 07:56:24 PM 42.3490 -71.4790 49° Northeast 489 563 35,000  Level FlightAware ADS-B
Fri 07:57:04 PM 42.4080 -71.3860 49° Northeast 490 564 35,000  Level FlightAware ADS-B
Fri 07:57:49 PM 42.4740 -71.2810 50° Northeast 485 558 35,000  Level FlightAware ADS-B
Fri 07:58:29 PM 42.5320 -71.1900 49° Northeast 485 558 35,000  Level FlightAware ADS-B
Fri 07:59:09 PM 42.5920 -71.0940 50° Northeast 485 558 35,000  Level FlightAware ADS-B
Fri 07:59:54 PM 42.6590 -70.9870 50° Northeast 486 559 35,000  Level FlightAware ADS-B
Fri 08:00:34 PM 42.7160 -70.8960 50° Northeast 487 560 35,000  Level FlightAware ADS-B
Fri 08:01:19 PM 42.7820 -70.7890 50° Northeast 488 562 35,000  Level FlightAware ADS-B
Fri 08:01:59 PM 42.8410 -70.6940 50° Northeast 488 562 35,000  Level FlightAware ADS-B
Fri 08:02:58 PM 42.9280 -70.5530 50° Northeast 495 570 35,000  Level FlightAware ADS-B
Fri 08:03:38 PM 42.9880 -70.4550 50° Northeast 496 571 35,000  Level FlightAware ADS-B
Fri 08:04:24 PM 43.0560 -70.3450 50° Northeast 496 571 35,000  Level FlightAware ADS-B
Fri 08:05:02 PM 43.1100 -70.2560 50° Northeast 495 570 35,000  Level FlightAware ADS-B
Fri 08:05:48 PM 43.1790 -70.1430 50° Northeast 497 572 35,000  Level FlightAware ADS-B
Fri 08:06:39 PM 43.2520 -70.0220 50° Northeast 492 566 35,000  Level FlightAware ADS-B
Fri 08:07:24 PM 43.3200 -69.9100 50° Northeast 497 572 35,000  Level FlightAware ADS-B
Fri 08:08:05 PM 43.3710 -69.8260 50° Northeast 497 572 35,000  Level FlightAware ADS-B
Fri 08:08:54 PM 43.4330 -69.7250 50° Northeast 497 572 35,000  Level FlightAware ADS-B
Fri 08:09:34 PM 43.5050 -69.6010 51° Northeast 491 565 35,000  Level FlightAware ADS-B
Fri 08:10:21 PM 43.5750 -69.4830 51° Northeast 491 565 35,000  Level FlightAware ADS-B
Fri 08:11:27 PM 43.6590 -69.3410 51° Northeast 491 565 35,000  Level FlightAware ADS-B
Fri 08:12:11 PM 43.7260 -69.2280 51° Northeast 489 563 35,000  Level FlightAware ADS-B
Fri 08:12:56 PM 43.8000 -69.1020 51° Northeast 488 562 35,000  Level FlightAware ADS-B
Fri 08:13:47 PM 43.8670 -68.9880 51° Northeast 492 566 35,000  Level FlightAware ADS-B
Fri 08:14:23 PM 43.9100 -68.9130 51° Northeast 492 566 35,000  Level FlightAware ADS-B
Fri 08:15:11 PM 43.9690 -68.8130 51° Northeast 492 566 35,000  Level FlightAware ADS-B
Fri 08:15:47 PM 44.0130 -68.7380 51° Northeast 492 566 35,000  Level FlightAware ADS-B
Fri 08:16:19 PM 44.0840 -68.6130 52° Northeast 492 566 35,000  Level FlightAware ADS-B
Fri 08:17:08 PM 44.1610 -68.4800 51° Northeast 493 567 35,000  Level FlightAware ADS-B
Fri 08:17:51 PM 44.2200 -68.3760 52° Northeast 493 567 35,000  Level FlightAware ADS-B
Fri 08:18:31 PM 44.2790 -68.2730 51° Northeast 494 568 35,000  Level FlightAware ADS-B
Fri 08:19:14 PM 44.3390 -68.1680 51° Northeast 494 568 35,000  Level FlightAware ADS-B
Fri 08:19:56 PM 44.3990 -68.0610 52° Northeast 495 570 35,000  Level FlightAware ADS-B
Fri 08:20:39 PM 44.4600 -67.9530 52° Northeast 496 571 35,000  Level FlightAware ADS-B
Fri 08:21:11 PM 44.5060 -67.8720 51° Northeast 496 571 35,000  Level FlightAware ADS-B
Fri 08:21:56 PM 44.5680 -67.7600 52° Northeast 497 572 35,000  Level FlightAware ADS-B
Fri 08:22:35 PM 44.6240 -67.6600 52° Northeast 497 572 35,000  Level FlightAware ADS-B
Fri 08:23:11 PM 44.6760 -67.5680 52° Northeast 498 573 35,000  Level FlightAware ADS-B
Fri 08:23:53 PM 44.7350 -67.4600 52° Northeast 499 574 35,000  Level FlightAware ADS-B
Fri 08:24:44 PM 44.8050 -67.3330 52° Northeast 499 574 35,000  Level FlightAware ADS-B
Fri 08:25:30 PM 44.8700 -67.2150 52° Northeast 500 575 35,000  Level FlightAware ADS-B
Fri 08:26:14 PM 44.9410 -67.1110 46° Northeast 494 568 35,000  Level FlightAware ADS-B
Fri 08:26:55 PM 45.0110 -67.0280 40° Northeast 486 559 35,000  Level FlightAware ADS-B
Fri 08:27:40 PM 45.0900 -66.9350 40° Northeast 486 559 35,000  Level FlightAware ADS-B
Fri 08:28:11 PM 45.1440 -66.8720 39° Northeast 487 560 35,000  Level FlightAware ADS-B
Fri 08:28:51 PM 45.2130 -66.7910 40° Northeast 487 560 35,000  Level FlightAware ADS-B
Fri 08:29:35 PM 45.2930 -66.6950 40° Northeast 487 560 35,000  Level FlightAware ADS-B
Fri 08:30:16 PM 45.3620 -66.6130 40° Northeast 488 562 35,000  Level FlightAware ADS-B
Fri 08:31:00 PM 45.4390 -66.5200 40° Northeast 488 562 35,000  Level FlightAware ADS-B
Fri 08:31:41 PM 45.5120 -66.4320 40° Northeast 488 562 35,000  Level FlightAware ADS-B
Fri 08:32:25 PM 45.5880 -66.3410 40° Northeast 489 563 35,000  Level FlightAware ADS-B
Fri 08:33:06 PM 45.6590 -66.2550 40° Northeast 487 560 35,000  Level FlightAware ADS-B
Fri 08:33:45 PM 45.7270 -66.1720 40° Northeast 488 562 35,000  Level FlightAware ADS-B
Fri 08:34:30 PM 45.8060 -66.0750 41° Northeast 487 560 35,000 -419 Level FlightAware ADS-B
Fri 08:35:11 PM 45.8750 -65.9910 40° Northeast 491 565 34,400 -963 Descending FlightAware ADS-B
Fri 08:35:51 PM 45.9420 -65.9080 41° Northeast 490 564 33,700 -1,050 Descending FlightAware ADS-B
Fri 08:36:31 PM 46.0130 -65.8220 40° Northeast 490 564 33,000 -506 Descending FlightAware ADS-B
Fri 08:37:14 PM 46.0860 -65.7310 41° Northeast 485 558 33,000  Level FlightAware ADS-B
Fri 08:38:03 PM 46.1580 -65.6440 40° Northeast 485 558 33,000  Level FlightAware ADS-B
Fri 08:38:43 PM 46.2310 -65.5520 41° Northeast 489 563 33,000  Level FlightAware ADS-B
Fri 08:39:19 PM 46.2840 -65.4880 40° Northeast 489 563 33,000  Level FlightAware ADS-B
Fri 08:40:07 PM 46.3550 -65.4020 40° Northeast 489 563 33,000  Level FlightAware ADS-B
Fri 08:40:43 PM 46.4080 -65.3380 40° Northeast 489 563 33,000  Level FlightAware ADS-B
Fri 08:41:31 PM 46.4780 -65.2520 40° Northeast 489 563 33,000  Level FlightAware ADS-B
Fri 08:42:07 PM 46.5310 -65.1870 40° Northeast 489 563 33,000  Level FlightAware ADS-B
Fri 08:42:55 PM 46.6020 -65.1010 40° Northeast 489 563 33,000  Level FlightAware ADS-B
Fri 08:43:31 PM 46.6550 -65.0360 40° Northeast 489 563 33,000  Level FlightAware ADS-B
Fri 08:44:19 PM 46.7260 -64.9490 40° Northeast 489 563 33,000  Level FlightAware ADS-B
Fri 08:45:08 PM 46.7980 -64.8610 40° Northeast 489 563 33,000  Level FlightAware ADS-B
Fri 08:45:45 PM 46.8520 -64.7940 40° Northeast 489 563 33,000  Level FlightAware ADS-B
Fri 08:46:33 PM 46.9230 -64.7070 40° Northeast 489 563 33,000  Level FlightAware ADS-B
Fri 08:47:10 PM 46.9780 -64.6400 40° Northeast 489 563 33,000  Level FlightAware ADS-B
Fri 08:47:48 PM 47.0340 -64.5710 40° Northeast 489 563 33,000  Level FlightAware ADS-B
Fri 08:48:32 PM 47.2500 -64.2167 40° Northeast 500 575 33,000  Level Gander Center
Fri 08:49:03 PM 47.3000 -64.1500 42° Northeast 500 575 33,000  Level Moncton Center
Fri 08:50:03 PM 47.4167 -64.0000 41° Northeast 510 587 33,000  Level Moncton Center
Fri 08:51:03 PM 47.5167 -63.8500 45° Northeast 510 587 33,000  Level Moncton Center
Fri 08:52:03 PM 47.6333 -63.7333 34° Northeast 510 587 33,000  Level Moncton Center
Fri 08:53:03 PM 47.7333 -63.5833 45° Northeast 510 587 33,000  Level Moncton Center
Fri 08:54:03 PM 47.8333 -63.4167 48° Northeast 510 587 33,000  Level Moncton Center
Fri 08:55:03 PM 47.9500 -63.3000 34° Northeast 510 587 33,000  Level Moncton Center
Fri 08:56:03 PM 48.0500 -63.1500 45° Northeast 510 587 33,000  Level Moncton Center
Fri 08:57:03 PM 48.1500 -63.0000 45° Northeast 510 587 33,000  Level Moncton Center
Fri 08:58:03 PM 48.2667 -62.8667 37° Northeast 520 598 33,000  Level Moncton Center
Fri 08:59:03 PM 48.3500 -62.7167 50° Northeast 510 587 33,000  Level Moncton Center
Fri 09:00:03 PM 48.4500 -62.5833 41° Northeast 510 587 33,000  Level Moncton Center
Fri 09:01:03 PM 48.5667 -62.4000 46° Northeast 510 587 33,000  Level Moncton Center
Fri 09:02:03 PM 48.6667 -62.2667 41° Northeast 500 575 33,000  Level Moncton Center
Fri 09:03:03 PM 48.7667 -62.1167 45° Northeast 500 575 33,000  Level Moncton Center
Fri 09:04:03 PM 48.8667 -61.9833 41° Northeast 490 564 33,000  Level Moncton Center
Fri 09:05:03 PM 48.9667 -61.8500 41° Northeast 490 564 33,000  Level Moncton Center
Fri 09:06:03 PM 49.0667 -61.6833 47° Northeast 510 587 33,000 450 Level Moncton Center
Fri 09:07:03 PM 49.1667 -61.5500 41° Northeast 480 552 33,900 500 Climbing Moncton Center
Fri 09:08:03 PM 49.2667 -61.4000 44° Northeast 500 575 34,000 50 Climbing Moncton Center
Fri 09:09:03 PM 49.3667 -61.2667 41° Northeast 500 575 34,000  Level Moncton Center
Fri 09:10:03 PM 49.4667 -61.1000 47° Northeast 500 575 34,000  Level Moncton Center
Fri 09:11:03 PM 49.5667 -60.9333 47° Northeast 500 575 34,000  Level Moncton Center
Fri 09:12:03 PM 49.6667 -60.8000 41° Northeast 490 564 34,000  Level Moncton Center
Fri 09:13:03 PM 49.7667 -60.6333 47° Northeast 500 575 34,000  Level Moncton Center
Fri 09:14:03 PM 49.8667 -60.5000 41° Northeast 500 575 34,000 100 Level Moncton Center
Fri 09:15:03 PM 49.9500 -60.3667 46° Northeast 500 575 34,200 550 Climbing Moncton Center
Fri 09:16:03 PM 50.0667 -60.2000 42° Northeast 510 587 35,100 1,300 Climbing Moncton Center
Fri 09:17:03 PM 50.1667 -60.0333 47° Northeast 520 598 36,800 950 Climbing Moncton Center
Fri 09:18:03 PM 50.2667 -59.8667 47° Northeast 500 575 37,000 100 Climbing Moncton Center
Fri 09:19:03 PM 50.3667 -59.7167 44° Northeast 510 587 37,000  Level Moncton Center
Fri 09:20:03 PM 50.4667 -59.5500 47° Northeast 510 587 37,000  Level Moncton Center
Fri 09:21:03 PM 50.5667 -59.3833 47° Northeast 510 587 37,000  Level Moncton Center
Fri 09:22:03 PM 50.6667 -59.2500 40° Northeast 510 587 37,000  Level Moncton Center
Fri 09:23:03 PM 50.7667 -59.0833 46° Northeast 500 575 37,000  Level Moncton Center
Fri 09:24:03 PM 50.8500 -58.9333 49° Northeast 490 564 37,000  Level Moncton Center
Fri 09:25:03 PM 50.9500 -58.7833 43° Northeast 490 564 37,000  Level Moncton Center
Fri 09:26:03 PM 51.0333 -58.6167 51° Northeast 490 564 37,000  Level Moncton Center
Fri 09:27:03 PM 51.1333 -58.4667 43° Northeast 490 564 37,000  Level Moncton Center
Fri 09:28:03 PM 51.2500 -58.3000 42° Northeast 490 564 37,000  Level Moncton Center
Fri 09:29:03 PM 51.3333 -58.1500 48° Northeast 500 575 37,000  Level Moncton Center
Fri 09:30:03 PM 51.4333 -57.9833 46° Northeast 500 575 37,000  Level Moncton Center
Fri 09:31:03 PM 51.5167 -57.8333 48° Northeast 500 575 37,000  Level Moncton Center
Fri 09:32:03 PM 51.6333 -57.6500 44° Northeast 500 575 37,000  Level Moncton Center
Fri 09:33:03 PM 51.7167 -57.4833 51° Northeast 510 587 37,000  Level Moncton Center
Fri 09:34:03 PM 51.8167 -57.3000 49° Northeast 510 587 37,000  Level Moncton Center
Fri 09:35:03 PM 51.9000 -57.1500 48° Northeast 510 587 37,000  Level Moncton Center
Fri 09:36:03 PM 52.0167 -57.0000 38° Northeast 510 587 37,000  Level Moncton Center
Fri 09:37:03 PM 52.1000 -56.8167 53° Northeast 520 598 37,000  Level Moncton Center
Fri 09:38:03 PM 52.1833 -56.6333 53° Northeast 510 587 37,000  Level Moncton Center
Fri 09:39:03 PM 52.2833 -56.4667 46° Northeast 510 587 37,000  Level Moncton Center
Fri 09:40:03 PM 52.3500 -56.2500 63° Northeast 520 598 37,000  Level Moncton Center
Fri 09:41:03 PM 52.4167 -56.0500 61° Northeast 510 587 37,000  Level Moncton Center
Fri 09:42:03 PM 52.4833 -55.8500 61° Northeast 510 587 37,000  Level Moncton Center
Fri 09:43:03 PM 52.5500 -55.6333 63° Northeast 510 587 37,000  Level Moncton Center
Fri 09:44:03 PM 52.6167 -55.4333 61° Northeast 510 587 37,000  Level Moncton Center
Fri 09:45:03 PM 52.7000 -55.2167 58° Northeast 510 587 37,000  Level Moncton Center
Fri 09:46:03 PM 52.7667 -55.0167 61° Northeast 520 598 37,000  Level Moncton Center
Fri 09:47:03 PM 52.8333 -54.8000 63° Northeast 530 610 37,000  Level Moncton Center
Fri 09:48:03 PM 52.9000 -54.6000 61° Northeast 530 610 37,000  Level Moncton Center
Fri 09:49:03 PM 52.9667 -54.3833 63° Northeast 530 610 37,000  Level Moncton Center
Fri 09:50:03 PM 53.0333 -54.1667 63° Northeast 530 610 37,000  Level Moncton Center
Fri 09:51:32 PM 53.1167 -53.8667 65° Northeast 530 610 37,000  Level Gander Center
Fri 09:52:32 PM 53.1667 -53.6000 73° East 540 621 37,000  Level Gander Center
Fri 09:53:32 PM 53.2167 -53.3667 70° East 540 621 37,000  Level Gander Center
Fri 09:54:32 PM 53.2667 -53.1333 70° East 550 633 37,000  Level Gander Center
Fri 09:55:32 PM 53.3333 -52.8667 67° East 560 644 37,000  Level Gander Center
Fri 09:56:32 PM 53.3833 -52.6333 70° East 570 656 37,000  Level Gander Center
Fri 09:57:32 PM 53.4333 -52.3667 72° East 570 656 37,000  Level Gander Center
Fri 09:58:32 PM 53.5000 -52.1333 64° Northeast 580 667 37,000  Level Gander Center
Fri 09:59:32 PM 53.5667 -51.8667 67° East 580 667 37,000  Level Gander Center
Fri 10:00:32 PM 53.6167 -51.6167 71° East 580 667 37,000  Level Gander Center
Fri 10:01:32 PM 53.6667 -51.3667 71° East 580 667 37,000  Level Gander Center
Fri 10:02:32 PM 53.7000 -51.1167 77° East 570 656 37,000  Level Gander Center
Fri 10:03:32 PM 53.7667 -50.8500 67° East 570 656 37,000  Level Gander Center
Fri 10:04:32 PM 53.8333 -50.6000 66° East 570 656 37,000  Level Gander Center
Fri 10:05:32 PM 53.8833 -50.3667 70° East 560 644 37,000  Level Gander Center
Fri 10:06:32 PM 53.9333 -50.1167 71° East 560 644 37,000  Level Gander Center
Fri 10:07:32 PM 53.9667 -49.8500 78° East 560 644 37,000  Level Gander Center
Fri 10:09:00 PM 54.0169 -49.5316 75° East  Level FlightAware Approximate
Fri 10:16:00 PM 54.2450 -48.0016 75° East  Level FlightAware Approximate
Fri 10:17:00 PM 54.2760 -47.7817 76° East  Level FlightAware Approximate
Fri 10:18:00 PM 54.3066 -47.5615 77° East  Level FlightAware Approximate
Fri 10:19:00 PM 54.3368 -47.3409 77° East  Level FlightAware Approximate
Fri 10:20:00 PM 54.3666 -47.1200 77° East  Level FlightAware Approximate
Fri 10:21:00 PM 54.3960 -46.8988 77° East  Level FlightAware Approximate
Fri 10:22:00 PM 54.4250 -46.6772 77° East  Level FlightAware Approximate
Fri 10:23:00 PM 54.4531 -46.4550 79° East  Level FlightAware Approximate
Fri 10:24:00 PM 54.4776 -46.2315 79° East  Level FlightAware Approximate
Fri 10:25:00 PM 54.5016 -46.0078 79° East  Level FlightAware Approximate
Fri 10:26:00 PM 54.5252 -45.7838 80° East  Level FlightAware Approximate
Fri 10:27:00 PM 54.5484 -45.5596 80° East  Level FlightAware Approximate
Fri 10:28:00 PM 54.5712 -45.3351 80° East  Level FlightAware Approximate
Fri 10:29:00 PM 54.5936 -45.1104 80° East  Level FlightAware Approximate
Fri 10:30:00 PM 54.6156 -44.8854 80° East  Level FlightAware Approximate
Fri 10:31:00 PM 54.6370 -44.6602 81° East  Level FlightAware Approximate
Fri 10:32:00 PM 54.6572 -44.4345 81° East  Level FlightAware Approximate
Fri 10:33:00 PM 54.6771 -44.2086 81° East  Level FlightAware Approximate
Fri 10:34:00 PM 54.6965 -43.9825 81° East  Level FlightAware Approximate
Fri 10:35:00 PM 54.7155 -43.7561 82° East  Level FlightAware Approximate
Fri 10:36:00 PM 54.7340 -43.5296 82° East  Level FlightAware Approximate
Fri 10:37:00 PM 54.7522 -43.3028 82° East  Level FlightAware Approximate
Fri 10:38:00 PM 54.7699 -43.0759 82° East  Level FlightAware Approximate
Fri 10:39:00 PM 54.7878 -42.8489 81° East  Level FlightAware Approximate
Fri 10:40:00 PM 54.8072 -42.6221 81° East  Level FlightAware Approximate
Fri 10:41:00 PM 54.8262 -42.3952 82° East  Level FlightAware Approximate
Fri 10:42:00 PM 54.8448 -42.1680 82° East  Level FlightAware Approximate
Fri 10:43:00 PM 54.8629 -41.9406 82° East  Level FlightAware Approximate
Fri 10:44:00 PM 54.8806 -41.7130 82° East  Level FlightAware Approximate
Fri 10:45:00 PM 54.8979 -41.4852 82° East  Level FlightAware Approximate
Fri 10:46:00 PM 54.9148 -41.2573 83° East  Level FlightAware Approximate
Fri 10:47:00 PM 54.9313 -41.0291 83° East  Level FlightAware Approximate
Fri 10:48:00 PM 54.9473 -40.8008 83° East  Level FlightAware Approximate
Fri 10:49:00 PM 54.9629 -40.5723 83° East  Level FlightAware Approximate
Fri 10:50:00 PM 54.9781 -40.3436 83° East  Level FlightAware Approximate
Fri 10:51:00 PM 54.9928 -40.1147 84° East  Level FlightAware Approximate
Fri 10:52:00 PM 54.9934 -39.8856 96° East  Level FlightAware Approximate
Fri 10:53:00 PM 54.9799 -39.6565 96° East  Level FlightAware Approximate
Fri 10:54:00 PM 54.9660 -39.4275 96° East  Level FlightAware Approximate
Fri 10:55:00 PM 54.9517 -39.1987 96° East  Level FlightAware Approximate
Fri 10:56:00 PM 54.9369 -38.9701 96° East  Level FlightAware Approximate
Fri 10:57:00 PM 54.9217 -38.7417 97° East  Level FlightAware Approximate
Fri 10:58:00 PM 54.9060 -38.5134 97° East  Level FlightAware Approximate
Fri 10:59:00 PM 54.8900 -38.2853 97° East  Level FlightAware Approximate
Fri 11:00:00 PM 54.8735 -38.0574 97° East  Level FlightAware Approximate
Fri 11:01:00 PM 54.8566 -37.8297 97° East  Level FlightAware Approximate
Fri 11:02:00 PM 54.8392 -37.6021 97° East  Level FlightAware Approximate
Fri 11:03:00 PM 54.8215 -37.3748 98° East  Level FlightAware Approximate
Fri 11:04:00 PM 54.8033 -37.1477 98° East  Level FlightAware Approximate
Fri 11:05:00 PM 54.7846 -36.9207 98° East  Level FlightAware Approximate
Fri 11:06:00 PM 54.7656 -36.6940 98° East  Level FlightAware Approximate
Fri 11:07:00 PM 54.7462 -36.4675 98° East  Level FlightAware Approximate
Fri 11:08:00 PM 54.7263 -36.2412 99° East  Level FlightAware Approximate
Fri 11:09:00 PM 54.7060 -36.0152 99° East  Level FlightAware Approximate
Fri 11:10:00 PM 54.6852 -35.7894 99° East  Level FlightAware Approximate
Fri 11:11:00 PM 54.6641 -35.5638 99° East  Level FlightAware Approximate
Fri 11:12:00 PM 54.6426 -35.3384 99° East  Level FlightAware Approximate
Fri 11:13:00 PM 54.6206 -35.1133 99° East  Level FlightAware Approximate
Fri 11:14:00 PM 54.5982 -34.8884 100° East  Level FlightAware Approximate
Fri 11:15:00 PM 54.5754 -34.6638 100° East  Level FlightAware Approximate
Fri 11:16:00 PM 54.5521 -34.4394 100° East  Level FlightAware Approximate
Fri 11:17:00 PM 54.5285 -34.2153 100° East  Level FlightAware Approximate
Fri 11:18:00 PM 54.5044 -33.9915 100° East  Level FlightAware Approximate
Fri 11:19:00 PM 54.4800 -33.7679 101° East  Level FlightAware Approximate
Fri 11:20:00 PM 54.4551 -33.5446 101° East  Level FlightAware Approximate
Fri 11:21:00 PM 54.4298 -33.3216 101° East  Level FlightAware Approximate
Fri 11:22:00 PM 54.4041 -33.0988 101° East  Level FlightAware Approximate
Fri 11:23:00 PM 54.3780 -32.8763 101° East  Level FlightAware Approximate
Fri 11:24:00 PM 54.3514 -32.6541 101° East  Level FlightAware Approximate
Fri 11:25:00 PM 54.3245 -32.4322 102° East  Level FlightAware Approximate
Fri 11:26:00 PM 54.2972 -32.2106 102° East  Level FlightAware Approximate
Fri 11:27:00 PM 54.2694 -31.9893 102° East  Level FlightAware Approximate
Fri 11:28:00 PM 54.2413 -31.7683 102° East  Level FlightAware Approximate
Fri 11:29:00 PM 54.2127 -31.5476 102° East  Level FlightAware Approximate
Fri 11:30:00 PM 54.1840 -31.3288 103° East  Level FlightAware Approximate
Fri 11:31:00 PM 54.1549 -31.1104 103° East  Level FlightAware Approximate
Fri 11:32:00 PM 54.1254 -30.8923 103° East  Level FlightAware Approximate
Fri 11:33:00 PM 54.0954 -30.6745 103° East  Level FlightAware Approximate
Fri 11:34:00 PM 54.0651 -30.4571 103° East  Level FlightAware Approximate
Fri 11:35:00 PM 54.0344 -30.2399 103° East  Level FlightAware Approximate
Fri 11:36:00 PM 54.0033 -30.0231 104° East  Level FlightAware Approximate
Fri 11:37:00 PM 54.0081 -29.8011 86° East  Level FlightAware Approximate
Fri 11:38:00 PM 54.0168 -29.5784 86° East  Level FlightAware Approximate
Fri 11:39:00 PM 54.0251 -29.3557 86° East  Level FlightAware Approximate
Fri 11:40:00 PM 54.0329 -29.1328 86° East  Level FlightAware Approximate
Fri 11:41:00 PM 54.0404 -28.9099 87° East  Level FlightAware Approximate
Fri 11:42:00 PM 54.0474 -28.6869 87° East  Level FlightAware Approximate
Fri 11:43:00 PM 54.0540 -28.4638 87° East  Level FlightAware Approximate
Fri 11:44:00 PM 54.0602 -28.2407 87° East  Level FlightAware Approximate
Fri 11:45:00 PM 54.0661 -28.0174 87° East  Level FlightAware Approximate
Fri 11:46:00 PM 54.0714 -27.7941 88° East  Level FlightAware Approximate
Fri 11:47:00 PM 54.0764 -27.5708 88° East  Level FlightAware Approximate
Fri 11:48:00 PM 54.0810 -27.3474 88° East  Level FlightAware Approximate
Fri 11:49:00 PM 54.0851 -27.1240 88° East  Level FlightAware Approximate
Fri 11:50:00 PM 54.0888 -26.9005 88° East  Level FlightAware Approximate
Fri 11:51:00 PM 54.0922 -26.6770 88° East  Level FlightAware Approximate
Fri 11:52:00 PM 54.0951 -26.4535 89° East  Level FlightAware Approximate
Fri 11:53:00 PM 54.0975 -26.2299 89° East  Level FlightAware Approximate
Fri 11:54:00 PM 54.0996 -26.0063 89° East  Level FlightAware Approximate
Fri 11:55:00 PM 54.1013 -25.7827 89° East  Level FlightAware Approximate
Fri 11:56:00 PM 54.1025 -25.5591 89° East  Level FlightAware Approximate
Fri 11:57:00 PM 54.1034 -25.3354 90° East  Level FlightAware Approximate
Fri 11:58:00 PM 54.1038 -25.1118 90° East  Level FlightAware Approximate
Fri 11:59:00 PM 54.1038 -24.8881 90° East  Level FlightAware Approximate
Sat 12:00:00 AM 54.1034 -24.6645 90° East  Level FlightAware Approximate
Sat 12:01:00 AM 54.1025 -24.4408 90° East  Level FlightAware Approximate
Sat 12:02:00 AM 54.1013 -24.2172 90° East  Level FlightAware Approximate
Sat 12:03:00 AM 54.0996 -23.9936 91° East  Level FlightAware Approximate
Sat 12:04:00 AM 54.0975 -23.7700 91° East  Level FlightAware Approximate
Sat 12:05:00 AM 54.0951 -23.5464 91° East  Level FlightAware Approximate
Sat 12:06:00 AM 54.0922 -23.3228 91° East  Level FlightAware Approximate
Sat 12:07:00 AM 54.0888 -23.0993 91° East  Level FlightAware Approximate
Sat 12:08:00 AM 54.0851 -22.8759 92° East  Level FlightAware Approximate
Sat 12:09:00 AM 54.0810 -22.6524 92° East  Level FlightAware Approximate
Sat 12:10:00 AM 54.0764 -22.4291 92° East  Level FlightAware Approximate
Sat 12:11:00 AM 54.0714 -22.2057 92° East  Level FlightAware Approximate
Sat 12:12:00 AM 54.0661 -21.9824 92° East  Level FlightAware Approximate
Sat 12:13:00 AM 54.0602 -21.7592 92° East  Level FlightAware Approximate
Sat 12:14:00 AM 54.0540 -21.5361 93° East  Level FlightAware Approximate
Sat 12:15:00 AM 54.0474 -21.3130 93° East  Level FlightAware Approximate
Sat 12:16:00 AM 54.0404 -21.0900 93° East  Level FlightAware Approximate
Sat 12:17:00 AM 54.0329 -20.8671 93° East  Level FlightAware Approximate
Sat 12:18:00 AM 54.0251 -20.6447 93° East  Level FlightAware Approximate
Sat 12:19:00 AM 54.0168 -20.4224 94° East  Level FlightAware Approximate
Sat 12:20:00 AM 54.0082 -20.2003 94° East  Level FlightAware Approximate
Sat 12:21:00 AM 53.9987 -19.9782 96° East  Level FlightAware Approximate
Sat 12:22:00 AM 53.9855 -19.7568 96° East  Level FlightAware Approximate
Sat 12:23:00 AM 53.9719 -19.5355 96° East  Level FlightAware Approximate
Sat 12:24:00 AM 53.9578 -19.3144 96° East  Level FlightAware Approximate
Sat 12:25:00 AM 53.9434 -19.0934 96° East  Level FlightAware Approximate
Sat 12:26:00 AM 53.9286 -18.8726 96° East  Level FlightAware Approximate
Sat 12:27:00 AM 53.9133 -18.6519 97° East  Level FlightAware Approximate
Sat 12:28:00 AM 53.8977 -18.4314 97° East  Level FlightAware Approximate
Sat 12:29:00 AM 53.8816 -18.2111 97° East  Level FlightAware Approximate
Sat 12:30:00 AM 53.8652 -17.9909 97° East  Level FlightAware Approximate
Sat 12:31:00 AM 53.8483 -17.7710 97° East  Level FlightAware Approximate
Sat 12:32:00 AM 53.8310 -17.5512 97° East  Level FlightAware Approximate
Sat 12:33:00 AM 53.8134 -17.3316 98° East  Level FlightAware Approximate
Sat 12:34:00 AM 53.7953 -17.1121 98° East  Level FlightAware Approximate
Sat 12:35:00 AM 53.7768 -16.8929 98° East  Level FlightAware Approximate
Sat 12:36:00 AM 53.7580 -16.6738 98° East  Level FlightAware Approximate
Sat 12:37:00 AM 53.7387 -16.4550 98° East  Level FlightAware Approximate
Sat 12:38:00 AM 53.7191 -16.2363 99° East  Level FlightAware Approximate
Sat 12:39:00 AM 53.6990 -16.0179 99° East  Level FlightAware Approximate
Sat 12:40:00 AM 53.6785 -15.7997 99° East  Level FlightAware Approximate
Sat 12:41:00 AM 53.6577 -15.5817 99° East  Level FlightAware Approximate
Sat 12:41:33 AM 53.9410 -14.6170 99° East 446 513 37,000  Level FlightAware ADS-B
Sat 12:42:00 AM 53.6364 -15.3639 99° East  Level FlightAware Approximate
Sat 12:42:19 AM 53.9210 -14.4830 104° East 444 511 37,000  Level FlightAware ADS-B
Sat 12:42:58 AM 53.8970 -14.3320 105° East 445 512 37,000  Level FlightAware ADS-B
Sat 12:44:04 AM 53.8630 -14.1200 105° East 445 512 37,000  Level FlightAware ADS-B
Sat 12:44:44 AM 53.8450 -14.0060 105° East 445 512 37,000  Level FlightAware ADS-B
Sat 12:45:24 AM 53.8190 -13.8460 105° East 446 513 37,000  Level FlightAware ADS-B
Sat 12:46:25 AM 53.7880 -13.6500 105° East 446 513 37,000  Level FlightAware ADS-B
Sat 12:46:59 AM 53.7660 -13.5220 106° East 447 514 37,000  Level FlightAware ADS-B
Sat 12:47:39 AM 53.7430 -13.3830 106° East 449 517 37,000  Level FlightAware ADS-B
Sat 12:48:19 AM 53.7200 -13.2510 106° East 449 517 37,000  Level FlightAware ADS-B
Sat 12:48:59 AM 53.6970 -13.1150 106° East 450 518 37,000  Level FlightAware ADS-B
Sat 12:50:01 AM 53.6660 -12.9260 105° East 451 519 37,000  Level FlightAware ADS-B
Sat 12:50:39 AM 53.6400 -12.7800 107° East 454 522 37,000  Level FlightAware ADS-B
Sat 12:51:24 AM 53.6130 -12.6270 107° East 456 525 37,000  Level FlightAware ADS-B
Sat 12:51:59 AM 53.5920 -12.5070 106° East 456 525 37,000  Level FlightAware ADS-B
Sat 12:52:39 AM 53.5680 -12.3670 106° East 456 525 37,000  Level FlightAware ADS-B
Sat 12:53:24 AM 53.5410 -12.2170 107° East 456 525 37,000  Level FlightAware ADS-B
Sat 12:54:00 AM 53.5200 -12.0970 106° East 454 522 37,000  Level FlightAware ADS-B
Sat 12:54:39 AM 53.4960 -11.9630 107° East 453 521 37,000  Level FlightAware ADS-B
Sat 12:55:19 AM 53.4720 -11.8310 107° East 452 520 37,000  Level FlightAware ADS-B
Sat 12:55:59 AM 53.4470 -11.6950 107° East 452 520 37,000  Level FlightAware ADS-B
Sat 12:56:44 AM 53.4200 -11.5480 107° East 451 519 37,000  Level FlightAware ADS-B
Sat 12:57:24 AM 53.3940 -11.4120 108° East 450 518 37,000  Level FlightAware ADS-B
Sat 12:58:05 AM 53.3690 -11.2770 107° East 447 514 37,000  Level FlightAware ADS-B
Sat 12:58:50 AM 53.3410 -11.1260 107° East 447 514 37,000  Level FlightAware ADS-B
Sat 12:59:20 AM 53.3220 -11.0280 108° East 448 516 37,000  Level FlightAware ADS-B
Sat 01:00:05 AM 53.2940 -10.8810 108° East 448 516 37,000  Level FlightAware ADS-B
Sat 01:00:50 AM 53.2650 -10.7300 108° East 450 518 37,000  Level FlightAware ADS-B
Sat 01:01:20 AM 53.2460 -10.6330 108° East 452 520 37,000  Level FlightAware ADS-B
Sat 01:02:05 AM 53.2160 -10.4820 108° East 452 520 37,000  Level FlightAware ADS-B
Sat 01:02:45 AM 53.1900 -10.3490 108° East 452 520 37,000  Level FlightAware ADS-B
Sat 01:03:25 AM 53.1640 -10.2140 108° East 456 525 37,000  Level FlightAware ADS-B
Sat 01:04:01 AM 53.1400 -10.0960 109° East 457 526 37,000  Level FlightAware ADS-B
Sat 01:04:46 AM 53.1100 -9.9480 109° East 457 526 37,000  Level FlightAware ADS-B
Sat 01:05:26 AM 53.0830 -9.8130 108° East 457 526 37,000  Level FlightAware ADS-B
Sat 01:06:11 AM 53.0530 -9.6640 108° East 459 528 37,000  Level FlightAware ADS-B
Sat 01:06:51 AM 53.0250 -9.5290 109° East 460 529 37,000  Level FlightAware ADS-B
Sat 01:07:36 AM 52.9950 -9.3800 108° East 462 532 37,000  Level FlightAware ADS-B
Sat 01:08:11 AM 52.9700 -9.2620 109° East 459 528 37,000  Level FlightAware ADS-B
Sat 01:08:51 AM 52.9430 -9.1300 109° East 461 531 37,000  Level FlightAware ADS-B
Sat 01:09:31 AM 52.9140 -8.9930 109° East 462 532 37,000  Level FlightAware ADS-B
Sat 01:09:32 AM 52.9127 -8.9873 109° East 440 506 37,000  Level FlightAware UK
Sat 01:10:02 AM 52.8913 -8.8872 109° East 440 506 37,000  Level FlightAware UK
Sat 01:10:07 AM 52.8900 -8.8820 109° East 463 533 37,000  Level FlightAware ADS-B
Sat 01:10:47 AM 52.8600 -8.7390 109° East 464 534 37,000  Level FlightAware ADS-B
Sat 01:11:32 AM 52.8266 -8.5851 109° East 448 516 37,000  Level FlightAware UK
Sat 01:11:33 AM 52.8270 -8.5880 109° East 465 535 37,000  Level FlightAware ADS-B
Sat 01:12:12 AM 52.7990 -8.4560 109° East 465 535 37,000  Level FlightAware ADS-B
Sat 01:12:52 AM 52.7690 -8.3200 110° East 467 537 37,000  Level FlightAware ADS-B
Sat 01:13:32 AM 52.7387 -8.1803 110° East 454 522 37,000  Level FlightAware UK
Sat 01:13:37 AM 52.7360 -8.1710 110° East 466 536 37,000  Level FlightAware ADS-B
Sat 01:14:17 AM 52.7070 -8.0360 109° East 466 536 37,000  Level FlightAware ADS-B
Sat 01:14:57 AM 52.6780 -7.9050 109° East 464 534 37,000  Level FlightAware ADS-B
Sat 01:15:02 AM 52.6727 -7.8809 109° East 448 516 37,000  Level FlightAware UK
Sat 01:15:32 AM 52.6504 -7.7815 109° East 446 513 37,000  Level FlightAware UK
Sat 01:15:37 AM 52.6470 -7.7700 109° East 462 532 37,000  Level FlightAware ADS-B
Sat 01:16:22 AM 52.6150 -7.6250 110° East 459 528 37,000  Level FlightAware ADS-B
Sat 01:16:58 AM 52.5880 -7.5060 110° East 457 526 37,000  Level FlightAware ADS-B
Sat 01:17:32 AM 52.5620 -7.3902 110° East 444 511 37,000  Level FlightAware UK
Sat 01:17:43 AM 52.5550 -7.3610 110° East 455 524 37,000  Level FlightAware ADS-B
Sat 01:18:23 AM 52.5250 -7.2300 111° Southeast 453 521 37,000  Level FlightAware ADS-B
Sat 01:19:03 AM 52.4955 -7.1009 111° Southeast 438 504 37,000  Level FlightAware UK
Sat 01:19:04 AM 52.4950 -7.1010 111° Southeast 452 520 37,000  Level FlightAware ADS-B
Sat 01:19:48 AM 52.4630 -6.9620 111° Southeast 451 519 37,000  Level FlightAware ADS-B
Sat 01:20:29 AM 52.4330 -6.8350 111° Southeast 451 519 37,000  Level FlightAware ADS-B
Sat 01:21:03 AM 52.4063 -6.7190 111° Southeast 438 504 37,000  Level FlightAware UK
Sat 01:21:24 AM 52.3900 -6.6540 111° Southeast 451 519 37,000  Level FlightAware ADS-B
Sat 01:22:03 AM 52.3615 -6.5286 111° Southeast 438 504 37,000  Level FlightAware UK
Sat 01:22:10 AM 52.3560 -6.5100 111° Southeast 451 519 37,000  Level FlightAware ADS-B
Sat 01:22:50 AM 52.3260 -6.3840 111° Southeast 451 519 37,000  Level FlightAware ADS-B
Sat 01:23:29 AM 52.3000 -6.2550 111° Southeast 452 520 37,000  Level FlightAware ADS-B
Sat 01:23:33 AM 52.2973 -6.2408 111° Southeast 442 509 37,000  Level FlightAware UK
Sat 01:24:03 AM 52.2796 -6.1422 111° Southeast 444 511 37,000  Level FlightAware UK
Sat 01:24:10 AM 52.2780 -6.1320 111° Southeast 449 517 37,000  Level FlightAware ADS-B
Sat 01:25:01 AM 52.2480 -5.9530 105° East 451 519 37,000  Level FlightAware ADS-B
Sat 01:25:33 AM 52.2301 -5.8473 105° East 444 511 37,000  Level FlightAware UK
Sat 01:25:41 AM 52.2260 -5.8240 105° East 451 519 37,000  Level FlightAware ADS-B
Sat 01:26:25 AM 52.2020 -5.6820 105° East 451 519 37,000  Level FlightAware ADS-B
Sat 01:26:59 AM 52.1810 -5.5660 106° East 451 519 37,000  Level FlightAware ADS-B
Sat 01:27:39 AM 52.1588 -5.4356 106° East 442 509 37,000  Level FlightAware UK
Sat 01:27:48 AM 52.1530 -5.4070 106° East 450 518 37,000  Level FlightAware ADS-B
Sat 01:28:29 AM 52.1300 -5.2760 106° East 450 518 37,000  Level FlightAware ADS-B
Sat 01:29:09 AM 52.1065 -5.1435 106° East 444 511 37,000  Level FlightAware UK
Sat 01:29:13 AM 52.1050 -5.1330 106° East 450 518 37,000  Level FlightAware ADS-B
Sat 01:29:53 AM 52.0810 -5.0020 107° East 450 518 37,000  Level FlightAware ADS-B
Sat 01:30:38 AM 52.0550 -4.8580 106° East 450 518 37,000  Level FlightAware ADS-B
Sat 01:31:10 AM 52.0360 -4.7540 107° East 449 517 37,000  Level FlightAware ADS-B
Sat 01:31:19 AM 52.0301 -4.7233 107° East 450 518 37,000  Level FlightAware ADS-B
Sat 01:31:51 AM 52.0112 -4.6203 107° East 444 511 37,000  Level FlightAware UK
Sat 01:31:52 AM 52.0110 -4.6200 107° East 449 517 37,000  Level FlightAware ADS-B
Sat 01:32:34 AM 51.9850 -4.4820 107° East 449 517 37,000  Level FlightAware ADS-B
Sat 01:33:19 AM 51.9590 -4.3410 107° East 449 517 37,000  Level FlightAware ADS-B
Sat 01:33:51 AM 51.9391 -4.2341 107° East 442 509 37,000  Level FlightAware UK
Sat 01:33:59 AM 51.9350 -4.2140 107° East 449 517 37,000  Level FlightAware ADS-B
Sat 01:34:39 AM 51.9100 -4.0830 107° East 448 516 37,000  Level FlightAware ADS-B
Sat 01:35:21 AM 51.8844 -3.9451 107° East 444 511 37,000  Level FlightAware UK
Sat 01:35:23 AM 51.8830 -3.9410 107° East 449 517 37,000  Level FlightAware ADS-B
Sat 01:35:59 AM 51.8610 -3.8270 107° East 448 516 37,000  Level FlightAware ADS-B
Sat 01:36:40 AM 51.8360 -3.6960 107° East 448 516 37,000  Level FlightAware ADS-B
Sat 01:37:20 AM 51.8110 -3.5680 107° East 448 516 37,000  Level FlightAware ADS-B
Sat 01:37:35 AM 51.8017 -3.5201 107° East 448 516 37,000  Level FlightAware ADS-B
Sat 01:38:10 AM 51.7800 -3.4091 108° East 448 516 37,000  Level FlightAware ADS-B
Sat 01:38:41 AM 51.7607 -3.3115 108° East 447 514 37,000  Level FlightAware ADS-B
Sat 01:39:13 AM 51.7403 -3.2085 108° East 447 514 37,000  Level FlightAware ADS-B
Sat 01:39:44 AM 51.7209 -3.1118 108° East 447 514 37,000  Level FlightAware ADS-B
Sat 01:40:14 AM 51.7014 -3.0146 108° East 447 514 37,000  Level FlightAware ADS-B
Sat 01:40:46 AM 51.6815 -2.9157 108° East 446 513 37,000  Level FlightAware ADS-B
Sat 01:41:17 AM 51.6617 -2.8179 108° East 445 512 37,000  Level FlightAware ADS-B
Sat 01:41:49 AM 51.6410 -2.7160 108° East 445 512 37,000  Level FlightAware ADS-B
Sat 01:42:26 AM 51.6174 -2.6009 108° East 444 511 37,000  Level FlightAware ADS-B
Sat 01:42:57 AM 51.5978 -2.5055 108° East 445 512 37,000  Level FlightAware ADS-B
Sat 01:43:30 AM 51.5765 -2.4027 108° East 445 512 37,000  Level FlightAware ADS-B
Sat 01:44:03 AM 51.5545 -2.2971 108° East 445 512 37,000  Level FlightAware ADS-B
Sat 01:44:42 AM 51.5295 -2.1773 108° East 445 512 37,000  Level FlightAware ADS-B
Sat 01:45:12 AM 51.5092 -2.0830 109° East 445 512 37,000  Level FlightAware ADS-B
Sat 01:45:42 AM 51.4895 -1.9893 109° East 445 512 37,000  Level FlightAware ADS-B
Sat 01:46:12 AM 51.4696 -1.8957 109° East 445 512 37,000  Level FlightAware ADS-B
Sat 01:46:43 AM 51.4496 -1.8015 109° East 445 512 37,000  Level FlightAware ADS-B
Sat 01:47:14 AM 51.4285 -1.7030 109° East 445 512 37,000  Level FlightAware ADS-B
Sat 01:47:45 AM 51.4084 -1.6089 109° East 444 511 37,000  Level FlightAware ADS-B
Sat 01:48:16 AM 51.3875 -1.5128 109° East 445 512 37,000  Level FlightAware ADS-B
Sat 01:48:46 AM 51.3670 -1.4187 109° East 445 512 37,000  Level FlightAware ADS-B
Sat 01:49:17 AM 51.3459 -1.3230 109° East 446 513 37,000  Level FlightAware ADS-B
Sat 01:49:47 AM 51.3251 -1.2289 109° East 445 512 37,000  Level FlightAware ADS-B
Sat 01:50:18 AM 51.3039 -1.1343 110° East 444 511 37,000  Level FlightAware ADS-B
Sat 01:50:48 AM 51.2828 -1.0409 110° East 443 510 37,000  Level FlightAware ADS-B
Sat 01:51:19 AM 51.2615 -0.9476 110° East 444 511 37,000  Level FlightAware ADS-B
Sat 01:51:50 AM 51.2394 -0.8515 110° East 443 510 37,000  Level FlightAware ADS-B
Sat 01:52:20 AM 51.2181 -0.7593 110° East 442 509 37,000  Level FlightAware ADS-B
Sat 01:52:50 AM 51.1966 -0.6697 111° Southeast 443 510 37,000  Level FlightAware ADS-B
Sat 01:53:05 AM 51.1807 -0.6273 121° Southeast 446 513 37,000  Level FlightAware ADS-B
Sat 01:53:22 AM 51.1575 -0.5855 131° Southeast 450 518 37,000  Level FlightAware ADS-B
Sat 01:53:27 AM 51.1495 -0.5740 138° Southeast 450 518 37,000  Level FlightAware ADS-B
Sat 01:53:57 AM 51.0988 -0.5144 144° Southeast 451 519 37,000  Level FlightAware ADS-B
Sat 01:54:27 AM 51.0479 -0.4561 144° Southeast 452 520 37,000  Level FlightAware ADS-B
Sat 01:54:58 AM 50.9957 -0.3971 145° Southeast 451 519 37,000  Level FlightAware ADS-B
Sat 01:55:29 AM 50.9440 -0.3387 145° Southeast 451 519 37,000  Level FlightAware ADS-B
Sat 01:56:00 AM 50.8908 -0.2784 144° Southeast 451 519 37,000  Level FlightAware ADS-B
Sat 01:56:31 AM 50.8388 -0.2197 145° Southeast 451 519 37,000  Level FlightAware ADS-B
Sat 01:57:04 AM 50.7832 -0.1572 145° Southeast 450 518 37,000  Level FlightAware ADS-B
Sat 01:57:35 AM 50.7310 -0.0986 145° Southeast 450 518 37,000  Level FlightAware ADS-B
Sat 01:58:05 AM 50.6794 -0.0404 144° Southeast 450 518 37,000  Level FlightAware ADS-B
Sat 01:58:36 AM 50.6296 0.0213 142° Southeast 449 517 37,000  Level FlightAware ADS-B
Sat 01:59:09 AM 50.5776 0.0906 140° Southeast 447 514 37,000  Level FlightAware ADS-B
Sat 01:59:40 AM 50.5289 0.1579 139° Southeast 448 516 37,000  Level FlightAware ADS-B
Sat 02:00:15 AM 50.4755 0.2323 138° Southeast 448 516 37,000  Level FlightAware ADS-B
Sat 02:00:48 AM 50.4245 0.3036 138° Southeast 448 516 37,000  Level FlightAware ADS-B
Sat 02:01:19 AM 50.3766 0.3699 139° Southeast 448 516 37,000  Level FlightAware ADS-B
Sat 02:01:52 AM 50.3259 0.4398 139° Southeast 448 516 37,000  Level FlightAware ADS-B
Sat 02:02:24 AM 50.2752 0.5093 139° Southeast 449 517 37,000  Level FlightAware ADS-B
Sat 02:02:57 AM 50.2244 0.5787 139° Southeast 449 517 37,000  Level FlightAware ADS-B
Sat 02:03:27 AM 50.1773 0.6426 139° Southeast 449 517 37,000  Level FlightAware ADS-B
Sat 02:04:21 AM 50.0940 0.7550 139° Southeast 450 518 37,000  Level FlightAware ADS-B
Sat 02:04:57 AM 50.0360 0.8330 139° Southeast 450 518 37,000  Level FlightAware ADS-B
Sat 02:05:00 AM 50.0308 0.8402 139° Southeast 440 506 37,000  Level FlightAware UK
Sat 02:05:36 AM 49.9742 0.9164 139° Southeast 438 504 37,000  Level FlightAware UK
Sat 02:05:45 AM 49.9640 0.9300 139° Southeast 451 519 37,000  Level FlightAware ADS-B
Sat 02:06:26 AM 49.8970 1.0200 139° Southeast 450 518 37,000  Level FlightAware ADS-B
Sat 02:07:10 AM 49.8300 1.1090 139° Southeast 451 519 37,000  Level FlightAware ADS-B
Sat 02:07:48 AM 49.7659 1.1942 139° Southeast 440 506 37,000  Level FlightAware UK
Sat 02:07:50 AM 49.7630 1.1970 139° Southeast 452 520 37,000  Level FlightAware ADS-B
Sat 02:08:24 AM 49.7085 1.2700 139° Southeast 440 506 37,000  Level FlightAware UK
Sat 02:08:26 AM 49.7090 1.2700 139° Southeast 452 520 37,000 -167 Level FlightAware ADS-B
Sat 02:09:00 AM 49.6514 1.3454 139° Southeast 440 506 36,900  Descending FlightAware UK
Sat 02:09:09 AM 49.6380 1.3630 139° Southeast 453 521 37,000 122 Climbing FlightAware ADS-B
Sat 02:09:49 AM 49.5760 1.4450 139° Southeast 453 521 37,000  Level FlightAware ADS-B
Sat 02:10:24 AM 49.5210 1.5160 140° Southeast 454 522 37,000 -91 Level FlightAware ADS-B
Sat 02:10:55 AM 49.4695 1.5839 140° Southeast 436 502 36,900  Descending FlightAware UK
Sat 02:11:02 AM 49.4600 1.5960 140° Southeast 454 522 37,000 109 Climbing FlightAware ADS-B
Sat 02:11:50 AM 49.3890 1.7050 135° Southeast 453 521 37,000  Level FlightAware ADS-B
Sat 02:12:25 AM 49.3360 1.7881 135° Southeast 438 504 37,000  Level FlightAware UK
Sat 02:12:31 AM 49.3270 1.8020 135° Southeast 453 521 37,000  Level FlightAware ADS-B
Sat 02:13:16 AM 49.2620 1.9020 135° Southeast 453 521 37,000  Level FlightAware ADS-B
Sat 02:13:53 AM 49.2060 1.9880 135° Southeast 454 522 37,000  Level FlightAware ADS-B
Sat 02:13:55 AM 49.2031 1.9929 135° Southeast 434 499 37,000  Level FlightAware UK
Sat 02:14:25 AM 49.1592 2.0619 135° Southeast 436 502 37,000  Level FlightAware UK
Sat 02:14:34 AM 49.1480 2.0790 135° Southeast 454 522 37,000  Level FlightAware ADS-B
Sat 02:15:07 AM 49.0974 2.1588 135° Southeast 438 504 37,000  Level FlightAware UK
Sat 02:15:17 AM 49.0820 2.1810 135° Southeast 456 525 37,000  Level FlightAware ADS-B
Sat 02:15:55 AM 49.0270 2.2660 135° Southeast 456 525 37,000  Level FlightAware ADS-B
Sat 02:16:42 AM 48.9580 2.3740 135° Southeast 456 525 37,000  Level FlightAware ADS-B
Sat 02:16:43 AM 48.9552 2.3772 135° Southeast 1 1 37,000  Level FlightAware UK
Sat 02:17:25 AM 48.8950 2.4710 135° Southeast 456 525 37,000  Level FlightAware ADS-B
Sat 02:18:07 AM 48.8320 2.5680 135° Southeast 457 526 37,000  Level FlightAware ADS-B
Sat 02:18:47 AM 48.7730 2.6610 134° Southeast 457 526 37,000  Level FlightAware ADS-B
Sat 02:19:29 AM 48.7120 2.7560 134° Southeast 457 526 37,000  Level FlightAware ADS-B
Sat 02:20:12 AM 48.6540 2.8450 135° Southeast 458 527 37,000  Level FlightAware ADS-B
Sat 02:20:55 AM 48.6050 2.9680 121° Southeast 450 518 37,000  Level FlightAware ADS-B
Sat 02:21:35 AM 48.5920 3.0840 100° East 447 514 37,000  Level FlightAware ADS-B
Sat 02:22:15 AM 48.5800 3.2160 98° East 447 514 37,000  Level FlightAware ADS-B
Sat 02:22:59 AM 48.5680 3.3480 98° East 448 516 37,000  Level FlightAware ADS-B
Sat 02:23:41 AM 48.5570 3.4780 97° East 449 517 37,000  Level FlightAware ADS-B
Sat 02:24:20 AM 48.5460 3.5920 98° East 451 519 37,000  Level FlightAware ADS-B
Sat 02:25:07 AM 48.5310 3.7450 98° East 450 518 37,000  Level FlightAware ADS-B
Sat 02:25:47 AM 48.5200 3.8660 98° East 450 518 37,000  Level FlightAware ADS-B
Sat 02:26:28 AM 48.5070 3.9950 99° East 450 518 37,000  Level FlightAware ADS-B
Sat 02:27:14 AM 48.4790 4.1350 107° East 455 524 37,000  Level FlightAware ADS-B
Sat 02:27:52 AM 48.4570 4.2300 109° East 453 521 37,000  Level FlightAware ADS-B
Sat 02:28:35 AM 48.4240 4.3690 110° East 452 520 37,000 -316 Level FlightAware ADS-B
Sat 02:29:08 AM 48.3980 4.4770 110° East 452 520 36,600 -1,169 Descending FlightAware ADS-B
Sat 02:29:52 AM 48.3660 4.6110 110° East 455 524 35,500 -1,227 Descending FlightAware ADS-B
Sat 02:30:36 AM 48.3350 4.7430 109° East 455 524 34,800 -957 Descending FlightAware ADS-B
Sat 02:31:26 AM 48.3030 4.8760 110° East 453 521 34,000 -966 Descending FlightAware ADS-B
Sat 02:32:03 AM 48.2740 4.9950 110° East 466 536 33,400 -1,000 Descending FlightAware ADS-B
Sat 02:32:50 AM 48.2370 5.1470 110° East 470 541 32,600 -1,012 Descending FlightAware ADS-B
Sat 02:33:26 AM 48.2110 5.2560 110° East 464 534 32,000 -900 Descending FlightAware ADS-B
Sat 02:34:10 AM 48.1830 5.3690 110° East 458 527 31,400 -706 Descending FlightAware ADS-B
Sat 02:34:51 AM 48.1550 5.4830 110° East 452 520 31,000 -282 Descending FlightAware ADS-B
Sat 02:35:35 AM 48.1240 5.6090 110° East 454 522 31,000  Level FlightAware ADS-B
Sat 02:36:18 AM 48.0900 5.7440 111° Southeast 458 527 31,000  Level FlightAware ADS-B
Sat 02:36:58 AM 48.0580 5.8710 111° Southeast 460 529 31,000  Level FlightAware ADS-B
Sat 02:37:39 AM 48.0300 5.9810 111° Southeast 462 532 31,000  Level FlightAware ADS-B
Sat 02:38:39 AM 47.9790 6.1840 111° Southeast 464 534 31,000  Level FlightAware ADS-B
Sat 02:39:15 AM 47.9510 6.2900 111° Southeast 464 534 31,000  Level FlightAware ADS-B
Sat 02:40:11 AM 47.9090 6.4540 111° Southeast 462 532 31,000 -184 Level FlightAware ADS-B
Sat 02:40:53 AM 47.8760 6.5820 111° Southeast 460 529 30,700 -1,244 Descending FlightAware ADS-B
Sat 02:41:33 AM 47.8470 6.6950 111° Southeast 452 520 29,300 -2,025 Descending FlightAware ADS-B
Sat 02:42:13 AM 47.8180 6.8040 112° Southeast 444 511 28,000 -2,138 Descending FlightAware ADS-B
Sat 02:43:00 AM 47.7820 6.9400 111° Southeast 435 501 26,200 -2,233 Descending FlightAware ADS-B
Sat 02:43:39 AM 47.7530 7.0500 111° Southeast 425 489 24,800 -2,118 Descending FlightAware ADS-B
Sat 02:44:25 AM 47.7200 7.1730 112° Southeast 414 476 23,200 -2,682 Descending FlightAware ADS-B
Sat 02:45:04 AM 47.6920 7.2780 112° Southeast 426 490 21,000 -2,925 Descending FlightAware ADS-B
Sat 02:45:45 AM 47.6630 7.3880 111° Southeast 418 481 19,300 -2,372 Descending FlightAware ADS-B
Sat 02:46:30 AM 47.6320 7.5040 112° Southeast 407 468 17,600 -2,286 Descending FlightAware ADS-B
Sat 02:47:09 AM 47.6070 7.6080 110° East 395 455 16,100 -2,329 Descending FlightAware ADS-B
Sat 02:47:55 AM 47.5810 7.7210 109° East 390 449 14,300 -2,400 Descending FlightAware ADS-B
Sat 02:48:34 AM 47.5590 7.8210 108° East 381 438 12,700 -1,840 Descending FlightAware ADS-B
Sat 02:49:10 AM 47.5390 7.9110 108° East 380 437 12,000 -1,432 Descending FlightAware ADS-B
Sat 02:50:02 AM 47.5100 8.0410 108° East 365 420 10,600 -1,304 Descending FlightAware ADS-B
Sat 02:50:42 AM 47.4900 8.1290 109° East 335 386 10,000 -545 Descending FlightAware ADS-B
Sat 02:51:08 AM 47.4800 8.1750 108° East 316 364 10,000 -492 Level FlightAware ADS-B
Sat 02:51:43 AM 47.4620 8.2560 108° East 295 339 9,500 -800 Descending FlightAware ADS-B
Sat 02:52:08 AM 47.4520 8.3000 109° East 279 321 9,200 -545 Descending FlightAware ADS-B
Sat 02:52:38 AM 47.4400 8.3530 108° East 262 302 9,000 -200 Descending FlightAware ADS-B
Sat 02:53:08 AM 47.4200 8.3940 126° Southeast 251 289 9,000  Level FlightAware ADS-B
Sat 02:53:38 AM 47.3890 8.4210 149° Southeast 253 291 9,000  Level FlightAware ADS-B
Sat 02:53:59 AM 47.3680 8.4400 148° Southeast 253 291 9,000  Level FlightAware ADS-B
Sat 02:54:23 AM 47.3430 8.4630 148° Southeast 255 293 9,000  Level FlightAware ADS-B
Sat 02:54:53 AM 47.3120 8.4930 147° Southeast 254 292 9,000 -421 Level FlightAware ADS-B
Sat 02:55:20 AM 47.2860 8.5160 149° Southeast 249 287 8,600 -764 Descending FlightAware ADS-B
Sat 02:55:48 AM 47.2580 8.5420 148° Southeast 235 270 8,300 -792 Descending FlightAware ADS-B
Sat 02:56:13 AM 47.2360 8.5630 147° Southeast 214 246 7,900 -750 Descending FlightAware ADS-B
Sat 02:56:44 AM 47.2110 8.5880 146° Southeast 205 236 7,600 -667 Descending FlightAware ADS-B
Sat 02:56:58 AM 47.2060 8.6040 115° Southeast 204 235 7,400 -923 Descending FlightAware ADS-B
Sat 02:57:23 AM 47.2110 8.6390 78° East 206 237 7,000 -764 Descending FlightAware ADS-B
Sat 02:57:53 AM 47.2240 8.6760 63° Northeast 207 238 6,700 -800 Descending FlightAware ADS-B
Sat 02:58:08 AM 47.2370 8.6840 23° Northeast 193 222 6,400 -1,067 Descending FlightAware ADS-B
Sat 02:58:38 AM 47.2620 8.6810 355° North 187 215 5,900 -960 Descending FlightAware ADS-B
Sat 02:58:58 AM 47.2770 8.6720 338° Northwest 193 222 5,600 -840 Descending FlightAware ADS-B
Sat 02:59:28 AM 47.3010 8.6560 336° Northwest 176 203 5,200 -900 Descending FlightAware ADS-B
Sat 02:59:58 AM 47.3220 8.6420 336° Northwest 167 192 4,700 -526 Descending FlightAware ADS-B
Sat 03:00:25 AM 47.3380 8.6300 333° Northwest 167 192 4,700 -1,213 Level FlightAware ADS-B
Sat 03:01:32 AM 47.3810 8.6010 335° Northwest 157 181 2,800 -1,515 Descending FlightAware ADS-B
Sat 03:02:04 AM 47.4060 8.5840 335° Northwest 149 171 2,200 -968 Descending FlightAware ADS-B
Sat 03:02:34 AM 47.4240 8.5710 334° Northwest 146 168 1,800 -808 Descending FlightAware ADS-B
Sat 03:02:56 AM 47.4370 8.5620 335° Northwest 144 166 1,500 -714 Descending FlightAware ADS-B
Sat 03:03:16 AM 47.4470 8.5560 338° Northwest 143 165 1,300 -600 Descending FlightAware ADS-B
Sat 03:04:27 AM 47.4700 8.5410 336° Northwest 123 142 -1,099 Descending FlightAware ADS-B
Sat 03:05:02 AM 47.4690 8.5430 126° Southeast 123 142  Level FlightAware ADS-B
Sat 03:05:47 AM 47.4670 8.5470 126° Southeast 123 142  Level FlightAware ADS-B
Sat 03:06:13 AM 47.4750 8.5620 52° Northeast 123 142  Level FlightAware ADS-B
Sat 03:06:23 AM 47.4650 8.5480 223° Southwest 123 142  Level FlightAware ADS-B
Sat 03:06:48 AM 47.4630 8.5490 161° South 123 142  Level FlightAware ADS-B
Sat 03:07:19 AM 47.4610 8.5500 161° South 123 142  Level FlightAware ADS-B
Sat 03:07:42 AM 47.4600 8.5520 126° Southeast 123 142  Level FlightAware ADS-B
Sat 03:08:12 AM 47.4600 8.5540 90° East 123 142  Level FlightAware ADS-B
Sat 03:08:53 AM 47.4600 8.5560 90° East 123 142  Level FlightAware ADS-B
Sat 03:09:30 AM 47.4730 8.5610 15° North 123 142  Level FlightAware ADS-B
Sat 03:12:00 AM 47.4647 8.5492 126° Southeast  Level Estimated

Login

Don't have an account? Register now (free) for customized features, flight alerts, and more!